WetterOnline ( https://www.wetteronline.de )

Wetter aktuell Burgsalach

Aktuelles Wetter: Roth (386m)

6-stündlich | Neueste Meldungen
Ortszeit Temperatur Wetter
Di, 20.10. 20:00 8.5° C -
Di, 20.10. 14:00 10.8° C fast wolkenlos
Di, 20.10. 8:00 1.8° C wolkig
Di, 20.10. 2:00 2.6° C wolkig
Mo, 19.10. 20:00 5.6° C wolkig
Mo, 19.10. 14:00 9.8° C bedeckt
Mo, 19.10. 8:00 5.4° C bedeckt
Mo, 19.10. 2:00 5.3° C bedeckt
Ortszeit Temperatur Wetter
Mi, 21.10. 1:30 8.9° C bedeckt
Mi, 21.10. 1:20 8.9° C bedeckt
Mi, 21.10. 1:10 8.7° C bedeckt
Mi, 21.10. 1:00 8.2° C bedeckt
Mi, 21.10. 0:50 8.2° C bedeckt
Mi, 21.10. 0:40 8.2° C bedeckt
Mi, 21.10. 0:30 8.2° C bedeckt
Mi, 21.10. 0:00 8.2° C bedeckt
Di, 20.10. 22:00 8.6° C bedeckt
Ortszeit Relative Feuchte Sichtweite
Di, 20.10. 20:00 87% 40 km
Di, 20.10. 14:00 67% 45 km
Di, 20.10. 8:00 99% 7 km
Di, 20.10. 2:00 90% 26 km
Mo, 19.10. 20:00 88% 30 km
Mo, 19.10. 14:00 66% 28 km
Mo, 19.10. 8:00 91% 17 km
Mo, 19.10. 2:00 94% 21 km
Ortszeit Relative Feuchte Sichtweite
Mi, 21.10. 1:30 81% 40 km
Mi, 21.10. 1:20 81% -
Mi, 21.10. 1:10 83% -
Mi, 21.10. 1:00 87% 35 km
Mi, 21.10. 0:50 87% -
Mi, 21.10. 0:40 87% -
Mi, 21.10. 0:30 87% 30 km
Mi, 21.10. 0:00 88% 29 km
Di, 20.10. 22:00 87% 35 km
Ortszeit Niederschlagsmenge Niederschlagsart
Di, 20.10. 20:00 0.0 l/m2 in 12 Std. -
Di, 20.10. 14:00 0.0 l/m2 in 6 Std. -
Di, 20.10. 8:00 0.0 l/m2 in 12 Std. -
Di, 20.10. 2:00 0.0 l/m2 in 6 Std. -
Mo, 19.10. 20:00 0.1 l/m2 in 12 Std. -
Mo, 19.10. 14:00 0.1 l/m2 in 6 Std. Regen
Mo, 19.10. 8:00 0.0 l/m2 in 12 Std. -
Mo, 19.10. 2:00 0.0 l/m2 in 6 Std. -
Ortszeit Niederschlagsmenge Niederschlagsart
Mi, 21.10. 1:30 0.0 l/m2 in 1 Std. -
Mi, 21.10. 1:20 keine Meldung -
Mi, 21.10. 1:10 keine Meldung -
Mi, 21.10. 1:00 0.0 l/m2 in 1 Std. -
Mi, 21.10. 0:50 keine Meldung -
Mi, 21.10. 0:40 keine Meldung -
Mi, 21.10. 0:30 0.0 l/m2 in 1 Std. -
Mi, 21.10. 0:00 0.0 l/m2 in 1 Std. -
Di, 20.10. 22:00 keine Meldung -
Ortszeit Stärke Spitze Richtung
km/h Bft. km/h Grad Sektor
Di, 20.10. 20:00 6 1 24 150° SO
Di, 20.10. 14:00 13 3 26 140° SO
Di, 20.10. 8:00 11 2 19 140° SO
Di, 20.10. 2:00 7 2 14 150° SO
Mo, 19.10. 20:00 7 2 14 110° O
Mo, 19.10. 14:00 7 2 14 140° SO
Mo, 19.10. 8:00 9 2 11 140° SO
Mo, 19.10. 2:00 0 0 11 - -
Ortszeit Stärke Spitze Richtung
km/h Bft. km/h Grad Sektor
Mi, 21.10. 1:30 9 2 17 140° SO
Mi, 21.10. 1:20 9 2 - 140° SO
Mi, 21.10. 1:10 9 2 - 140° SO
Mi, 21.10. 1:00 9 2 15 130° SO
Mi, 21.10. 0:50 9 2 - 130° SO
Mi, 21.10. 0:40 7 2 - 140° SO
Mi, 21.10. 0:30 7 2 11 130° SO
Mi, 21.10. 0:00 7 2 14 120° SO
Di, 20.10. 22:00 7 2 18 130° SO
Ortszeit Untergrenze Bedeckung Gattung
total tief tief mittel hoch
Di, 20.10. 20:00 - - - - - -
Di, 20.10. 14:00 9000 m 2/8 0/8 - - -
Di, 20.10. 8:00 10500 m 7/8 0/8 - - -
Di, 20.10. 2:00 7500 m 7/8 0/8 - - -
Mo, 19.10. 20:00 1470 m 5/8 5/8 - - -
Mo, 19.10. 14:00 1500 m 8/8 8/8 - - -
Mo, 19.10. 8:00 1260 m 8/8 8/8 - - -
Mo, 19.10. 2:00 1500 m 8/8 8/8 - - -
Ortszeit Bedeckungsgrad in Achtel und Wolkenuntergrenze
Mi, 21.10. 1:30 5(3300m) 6(4200m) 8(4800m)
Mi, 21.10. 1:20 5(3300m) 6(4200m) 8(4800m)
Mi, 21.10. 1:10 3(3600m) 4(4500m) 8(5100m)
Mi, 21.10. 1:00 1(3600m) 8(5100m) 8(6000m)
Mi, 21.10. 0:50 1(3600m) 8(5100m) 8(6000m)
Mi, 21.10. 0:40 1(3600m) 8(5100m) 8(6000m)
Mi, 21.10. 0:30 8(5100m) 8(6000m) 8(6000m)
Mi, 21.10. 0:00 8(5100m) 8(5700m) 8(6300m)
Di, 20.10. 22:00 8(3000m)
Ortszeit Luftdruck NN (hPa) Tendenz (hPa in 3 Std.)
Di, 20.10. 20:00 1017 - 0,1
Di, 20.10. 14:00 1017 - 1,0
Di, 20.10. 8:00 1020 - 0,7
Di, 20.10. 2:00 1022 - 1,8
Mo, 19.10. 20:00 1023 0,0
Mo, 19.10. 14:00 1024 - 1,0
Mo, 19.10. 8:00 1025 0,0
Mo, 19.10. 2:00 1025 + 0,1
Ortszeit Luftdruck NN (hPa) Tendenz (hPa in 3 Std.)
Mi, 21.10. 1:30 1014 - 1,9
Mi, 21.10. 1:20 1014 keine Meldung
Mi, 21.10. 1:10 1015 keine Meldung
Mi, 21.10. 1:00 1015 - 1,5
Mi, 21.10. 0:50 1015 keine Meldung
Mi, 21.10. 0:40 1015 keine Meldung
Mi, 21.10. 0:30 1015 - 1,8
Mi, 21.10. 0:00 1016 - 0,9
Di, 20.10. 22:00 1016 - 0,1
Ortszeit Schneehöhe (cm)
Di, 20.10. 20:00 0
Di, 20.10. 14:00 0
Di, 20.10. 8:00 0
Di, 20.10. 2:00 0
Mo, 19.10. 20:00 0
Mo, 19.10. 14:00 0
Mo, 19.10. 8:00 0
Mo, 19.10. 2:00 0
Ortszeit Schneehöhe (cm)
Mi, 21.10. 1:30 0
Mi, 21.10. 1:20 0
Mi, 21.10. 1:10 0
Mi, 21.10. 1:00 0
Mi, 21.10. 0:50 0
Mi, 21.10. 0:40 0
Mi, 21.10. 0:30 0
Mi, 21.10. 0:00 0
Di, 20.10. 22:00 -
Link zu dieser Seite / Seite empfehlen

Das Wetter in ...